Time;durP1;ratioP1;P1;durP2;ratioP2;P2;SDS_P1;SDS_P2;PMS_P1;PMS_P2;Temp;Humidity;BMP_temperature;BMP_pressure;BME280_temperature;BME280_humidity;BME280_pressure;Samples;Min_cycle;Max_cycle;Signal;HPM_P1;HPM_P2
2023/05/03 00:00:44;;;;;;;5.57;3.20;;;;;;;4.74;nan;101934.25;5035416;28;20053;-84
2023/05/03 00:03:12;;;;;;;6.77;3.10;;;;;;;4.72;nan;101938.59;5020014;28;20053;-81
2023/05/03 00:05:39;;;;;;;8.03;3.47;;;;;;;4.80;nan;101936.16;5037180;28;20041;-81
2023/05/03 00:08:09;;;;;;;4.87;2.73;;;;;;;4.74;nan;101936.88;5004899;28;20036;-81
2023/05/03 00:10:36;;;;;;;5.43;2.87;;;;;;;4.59;nan;101940.88;5031976;28;20033;-81
2023/05/03 00:13:03;;;;;;;3.43;2.50;;;;;;;4.54;nan;101940.78;5032622;28;20033;-81
2023/05/03 00:15:30;;;;;;;6.30;3.10;;;;;;;4.41;nan;101946.53;5024428;28;20037;-81
2023/05/03 00:17:57;;;;;;;3.87;2.80;;;;;;;4.45;nan;101949.25;5043460;28;20041;-81
2023/05/03 00:20:24;;;;;;;4.77;2.90;;;;;;;4.33;nan;101951.56;5022214;28;20033;-81
2023/05/03 00:22:51;;;;;;;5.33;2.83;;;;;;;4.22;nan;101940.84;5020835;28;20475;-80
2023/05/03 00:25:18;;;;;;;5.07;2.60;;;;;;;4.18;nan;101943.31;5028028;28;20037;-81
2023/05/03 00:27:44;;;;;;;6.80;3.33;;;;;;;4.13;nan;101944.94;5015431;28;20045;-80
2023/05/03 00:30:12;;;;;;;4.30;3.03;;;;;;;4.02;nan;101949.88;4991034;28;20068;-80
2023/05/03 00:32:39;;;;;;;4.73;2.63;;;;;;;3.96;nan;101944.50;5011792;28;20037;-81
2023/05/03 00:35:06;;;;;;;7.40;3.27;;;;;;;3.95;nan;101954.06;5007675;28;20038;-81
2023/05/03 00:37:35;;;;;;;5.00;3.30;;;;;;;4.03;nan;101948.13;5007365;28;20037;-80
2023/05/03 00:40:03;;;;;;;4.77;2.90;;;;;;;3.91;nan;101954.81;5023672;28;20401;-81
2023/05/03 00:42:33;;;;;;;4.50;2.97;;;;;;;3.83;nan;101950.22;5032411;28;20037;-81
2023/05/03 00:45:00;;;;;;;8.57;4.07;;;;;;;3.91;nan;101953.94;5015327;28;20033;-80
2023/05/03 00:47:27;;;;;;;8.03;3.43;;;;;;;3.87;nan;101947.75;5006702;28;20037;-81
2023/05/03 00:49:54;;;;;;;5.77;3.27;;;;;;;3.82;nan;101946.72;5025680;28;20044;-81
2023/05/03 00:52:21;;;;;;;6.60;3.63;;;;;;;3.80;nan;101950.16;5012071;28;20037;-81
2023/05/03 00:54:48;;;;;;;6.57;3.30;;;;;;;3.88;nan;101943.41;5011183;28;20045;-81
2023/05/03 00:57:15;;;;;;;4.07;2.53;;;;;;;3.81;nan;101938.84;5017347;28;20168;-80
2023/05/03 00:59:42;;;;;;;8.27;3.60;;;;;;;3.68;nan;101945.44;4995067;28;20037;-80
2023/05/03 01:02:09;;;;;;;7.27;3.17;;;;;;;3.61;nan;101948.72;5011647;28;20397;-80
2023/05/03 01:04:36;;;;;;;5.73;3.30;;;;;;;3.72;nan;101944.69;5029928;28;20033;-80
2023/05/03 01:07:03;;;;;;;6.63;3.57;;;;;;;3.71;nan;101942.06;5006814;28;20037;-80
2023/05/03 01:09:36;;;;;;;5.40;3.10;;;;;;;3.61;nan;101947.00;5029337;28;20037;-80
2023/05/03 01:12:19;;;;;;;5.23;2.73;;;;;;;3.64;nan;101954.06;4998278;28;20511;-80
2023/05/03 01:15:04;;;;;;;5.90;2.97;;;;;;;3.55;nan;101953.78;5008185;28;20035;-80
2023/05/03 01:17:35;;;;;;;3.90;3.05;;;;;;;3.44;nan;101947.34;5046232;28;20041;-81
2023/05/03 01:20:12;;;;;;;6.70;3.20;;;;;;;3.43;nan;101956.91;5017795;28;20044;-80
2023/05/03 01:22:49;;;;;;;6.30;3.10;;;;;;;3.38;nan;101961.13;5031481;28;20402;-80
2023/05/03 01:25:16;;;;;;;10.80;3.53;;;;;;;3.35;nan;101954.06;5022907;28;20491;-80
2023/05/03 01:27:44;;;;;;;4.60;3.43;;;;;;;3.28;nan;101954.75;5027230;28;20048;-80
2023/05/03 01:30:11;;;;;;;9.77;3.30;;;;;;;3.28;nan;101959.06;5027266;28;20044;-80
2023/05/03 01:33:02;;;;;;;7.70;3.53;;;;;;;3.24;nan;101967.66;5013071;28;20037;-80
2023/05/03 01:35:41;;;;;;;5.67;3.20;;;;;;;3.12;nan;101965.56;5002200;28;20418;-79
2023/05/03 01:38:09;;;;;;;5.73;2.90;;;;;;;3.15;nan;101972.59;5014703;28;20040;-80
2023/05/03 01:40:41;;;;;;;4.77;3.10;;;;;;;3.02;nan;101976.56;5028617;28;20041;-80
2023/05/03 01:43:12;;;;;;;5.10;3.00;;;;;;;3.01;nan;101977.38;5014992;28;20041;-80
2023/05/03 01:45:41;;;;;;;5.37;3.20;;;;;;;2.95;nan;101972.00;5022520;28;20041;-79
2023/05/03 01:48:10;;;;;;;5.00;3.00;;;;;;;2.92;nan;101970.16;5016261;28;20045;-80
2023/05/03 01:50:37;;;;;;;5.90;3.27;;;;;;;2.96;nan;101966.81;5023743;28;20033;-81
2023/05/03 01:53:04;;;;;;;4.60;3.00;;;;;;;2.77;nan;101970.53;5016280;28;20372;-83
2023/05/03 01:55:31;;;;;;;5.43;3.17;;;;;;;2.62;nan;101974.41;5007795;28;20033;-83
2023/05/03 01:57:57;;;;;;;7.13;3.40;;;;;;;2.50;nan;101969.66;5019282;28;20038;-80
2023/05/03 02:00:24;;;;;;;7.87;3.03;;;;;;;2.40;nan;101964.97;5011779;28;20043;-81
2023/05/03 02:02:51;;;;;;;4.20;3.67;;;;;;;2.39;nan;101966.69;5015913;28;20045;-81
2023/05/03 02:05:20;;;;;;;4.80;3.20;;;;;;;2.40;nan;101960.63;5033073;28;20037;-85
2023/05/03 02:07:47;;;;;;;4.57;3.13;;;;;;;2.35;nan;101969.13;5032313;28;20508;-82
2023/05/03 02:10:15;;;;;;;6.23;3.87;;;;;;;2.39;nan;101964.09;5004880;28;20537;-82
2023/05/03 02:12:43;;;;;;;6.73;2.97;;;;;;;2.22;nan;101967.84;5000830;28;20043;-82
2023/05/03 02:15:11;;;;;;;5.03;3.17;;;;;;;2.17;nan;101974.59;5027285;28;20033;-83
2023/05/03 02:17:38;;;;;;;6.23;3.37;;;;;;;2.25;nan;101968.81;4993516;28;20042;-82
2023/05/03 02:20:08;;;;;;;7.30;3.40;;;;;;;2.14;nan;101975.41;5026385;28;20025;-83
2023/05/03 02:22:35;;;;;;;4.30;3.03;;;;;;;2.14;nan;101987.56;5004838;28;20056;-82
2023/05/03 02:25:03;;;;;;;7.13;3.47;;;;;;;2.10;nan;101993.47;5026302;28;20049;-85
2023/05/03 02:27:30;;;;;;;6.97;3.70;;;;;;;2.00;nan;101981.84;5017638;28;20518;-85
2023/05/03 02:29:57;;;;;;;4.73;2.97;;;;;;;2.01;nan;101988.81;5003246;28;20048;-82
2023/05/03 02:32:24;;;;;;;5.60;3.37;;;;;;;1.94;nan;101992.06;5013511;28;20045;-85
2023/05/03 02:34:51;;;;;;;6.70;3.47;;;;;;;1.82;nan;101989.00;5031596;28;20041;-82
2023/05/03 02:37:18;;;;;;;7.20;3.60;;;;;;;1.72;nan;101984.28;5009361;28;20063;-82
2023/05/03 02:39:45;;;;;;;6.40;3.57;;;;;;;1.77;nan;101987.97;5025964;28;20053;-84
2023/05/03 02:42:12;;;;;;;6.17;3.20;;;;;;;1.81;nan;101989.84;5009074;28;20041;-82
2023/05/03 02:44:39;;;;;;;4.90;3.03;;;;;;;1.66;nan;101996.25;5032102;28;20049;-85
2023/05/03 02:47:06;;;;;;;5.87;3.27;;;;;;;1.78;nan;101989.75;5014036;28;20037;-82
2023/05/03 02:49:33;;;;;;;5.53;3.10;;;;;;;1.70;nan;101997.28;5015950;28;20037;-86
2023/05/03 02:52:00;;;;;;;5.87;3.60;;;;;;;1.66;nan;101990.16;5017741;28;20435;-82
2023/05/03 02:54:26;;;;;;;7.97;3.53;;;;;;;1.60;nan;101989.94;5000479;28;20052;-83
2023/05/03 02:56:53;;;;;;;5.03;3.33;;;;;;;1.53;nan;101994.03;5008943;28;20037;-82
2023/05/03 02:59:22;;;;;;;5.63;2.70;;;;;;;1.54;nan;101988.00;5050847;28;20037;-81
2023/05/03 03:01:49;;;;;;;8.10;3.40;;;;;;;1.53;nan;101996.66;5010931;28;20127;-81
2023/05/03 03:04:16;;;;;;;6.83;3.47;;;;;;;1.53;nan;102000.97;5034186;28;20037;-81
2023/05/03 03:06:43;;;;;;;4.87;2.73;;;;;;;1.50;nan;102004.31;5005360;28;20491;-82
2023/05/03 03:09:11;;;;;;;6.93;3.63;;;;;;;1.40;nan;102002.19;5011363;28;20048;-82
2023/05/03 03:11:38;;;;;;;5.10;3.27;;;;;;;1.33;nan;102002.78;5031660;28;20090;-82
2023/05/03 03:14:05;;;;;;;5.93;3.17;;;;;;;1.28;nan;102000.03;5033970;28;20045;-85
2023/05/03 03:16:32;;;;;;;7.07;3.20;;;;;;;1.33;nan;102008.00;5031227;28;20036;-84
2023/05/03 03:18:59;;;;;;;6.73;3.20;;;;;;;1.20;nan;102008.38;5011774;28;20041;-82
2023/05/03 03:21:27;;;;;;;5.77;3.60;;;;;;;1.19;nan;102009.19;5049952;28;20052;-85
2023/05/03 03:23:55;;;;;;;5.50;3.57;;;;;;;1.13;nan;102008.13;5029079;28;20035;-83
2023/05/03 03:26:22;;;;;;;6.87;3.27;;;;;;;1.18;nan;102015.19;5014882;28;20048;-85
2023/05/03 03:28:50;;;;;;;8.03;4.20;;;;;;;1.22;nan;102015.41;5018317;28;20047;-81
2023/05/03 03:31:17;;;;;;;5.60;3.20;;;;;;;1.37;nan;102012.50;5014725;28;20037;-82
2023/05/03 03:33:45;;;;;;;6.70;3.10;;;;;;;1.24;nan;102020.66;5050287;28;20033;-86
2023/05/03 03:36:12;;;;;;;5.77;3.47;;;;;;;1.16;nan;102025.56;5012717;28;20043;-81
2023/05/03 03:38:40;;;;;;;6.07;3.40;;;;;;;1.10;nan;102023.63;5010051;28;20037;-81
2023/05/03 03:41:07;;;;;;;8.87;3.73;;;;;;;1.08;nan;102026.97;5031064;28;20067;-82
2023/05/03 03:43:34;;;;;;;8.70;3.30;;;;;;;1.04;nan;102025.97;5013952;28;20041;-82
2023/05/03 03:46:01;;;;;;;6.93;3.73;;;;;;;1.09;nan;102027.06;5030549;28;20037;-82
2023/05/03 03:48:27;;;;;;;8.47;3.00;;;;;;;1.03;nan;102036.34;5038564;28;20037;-85
2023/05/03 03:50:55;;;;;;;5.83;3.30;;;;;;;1.01;nan;102032.75;5028724;28;20041;-84
2023/05/03 03:53:22;;;;;;;5.40;3.27;;;;;;;1.00;nan;102026.66;5031323;28;20041;-84
2023/05/03 03:55:49;;;;;;;5.47;3.17;;;;;;;1.10;nan;102022.75;5020774;28;20059;-82
2023/05/03 03:58:16;;;;;;;7.50;2.80;;;;;;;1.12;nan;102031.50;5026815;28;20059;-85
2023/05/03 04:00:43;;;;;;;7.83;3.50;;;;;;;1.06;nan;102039.94;5008084;28;20071;-84
2023/05/03 04:03:10;;;;;;;7.47;3.43;;;;;;;1.10;nan;102034.03;5014888;28;20035;-84
2023/05/03 04:05:37;;;;;;;8.87;3.67;;;;;;;1.06;nan;102031.25;5014547;28;20041;-82
2023/05/03 04:08:04;;;;;;;4.50;3.20;;;;;;;1.02;nan;102030.25;5013180;28;20037;-83
2023/05/03 04:10:31;;;;;;;5.13;3.40;;;;;;;1.03;nan;102041.53;5009974;28;20037;-83
2023/05/03 04:12:58;;;;;;;5.90;3.57;;;;;;;1.00;nan;102031.88;5039037;28;20051;-82
2023/05/03 04:15:25;;;;;;;4.13;2.97;;;;;;;1.03;nan;102039.81;5030643;28;20037;-82
2023/05/03 04:17:52;;;;;;;6.20;3.43;;;;;;;1.05;nan;102040.75;4998760;28;20055;-81
2023/05/03 04:20:20;;;;;;;5.77;3.40;;;;;;;0.97;nan;102043.88;5029292;28;20055;-81
2023/05/03 04:22:47;;;;;;;4.30;3.10;;;;;;;1.01;nan;102041.47;5013293;28;20107;-82
2023/05/03 04:25:15;;;;;;;6.27;3.03;;;;;;;0.95;nan;102046.44;5049388;28;20656;-82
2023/05/03 04:27:43;;;;;;;8.83;3.40;;;;;;;0.94;nan;102046.38;5015602;28;20033;-82
2023/05/03 04:30:14;;;;;;;7.57;3.20;;;;;;;0.99;nan;102047.41;5013639;28;20053;-85
2023/05/03 04:32:41;;;;;;;3.77;2.90;;;;;;;0.99;nan;102056.13;5010152;28;20029;-81
2023/05/03 04:35:09;;;;;;;5.97;3.63;;;;;;;1.06;nan;102054.66;5019900;28;20055;-84
2023/05/03 04:37:36;;;;;;;5.73;3.40;;;;;;;1.17;nan;102063.78;5029774;28;20148;-82
2023/05/03 04:40:07;;;;;;;6.80;3.20;;;;;;;1.24;nan;102062.31;5013876;28;20510;-83
2023/05/03 04:42:35;;;;;;;9.90;3.60;;;;;;;1.34;nan;102069.66;5037990;28;20051;-81
2023/05/03 04:45:02;;;;;;;6.77;3.50;;;;;;;1.38;nan;102068.97;5044346;28;20056;-84
2023/05/03 04:47:29;;;;;;;6.23;3.13;;;;;;;1.50;nan;102074.63;5029985;28;20244;-82
2023/05/03 04:49:56;;;;;;;7.77;3.40;;;;;;;1.51;nan;102079.00;5022225;28;20047;-85
2023/05/03 04:52:25;;;;;;;4.70;3.10;;;;;;;1.52;nan;102075.63;5014022;28;20052;-84
2023/05/03 04:54:53;;;;;;;5.13;3.00;;;;;;;1.51;nan;102075.53;5017829;28;20518;-82
2023/05/03 04:57:20;;;;;;;6.27;3.63;;;;;;;1.73;nan;102080.75;4994321;28;20037;-84
2023/05/03 04:59:47;;;;;;;5.13;3.03;;;;;;;1.99;nan;102073.91;5003769;28;20033;-83
2023/05/03 05:02:14;;;;;;;4.90;3.17;;;;;;;2.12;nan;102081.34;5020742;28;20098;-81
2023/05/03 05:04:41;;;;;;;5.93;3.40;;;;;;;2.32;nan;102078.56;5026416;28;20079;-81
2023/05/03 05:07:08;;;;;;;4.63;2.80;;;;;;;2.47;nan;102077.41;5018481;28;20037;-84
2023/05/03 05:09:35;;;;;;;4.87;3.53;;;;;;;2.56;nan;102074.22;5027114;28;20046;-82
2023/05/03 05:12:02;;;;;;;5.33;3.50;;;;;;;2.50;nan;102079.22;5025451;28;20496;-84
2023/05/03 05:14:30;;;;;;;5.30;3.00;;;;;;;2.45;nan;102081.69;4997681;28;20516;-81
2023/05/03 05:16:57;;;;;;;6.40;3.40;;;;;;;2.47;nan;102086.94;5002913;28;20139;-86
2023/05/03 05:19:24;;;;;;;7.37;3.60;;;;;;;2.53;nan;102085.44;5002328;28;20053;-85
2023/05/03 05:21:51;;;;;;;16.23;3.53;;;;;;;2.59;nan;102078.66;5021460;28;20056;-84
2023/05/03 05:24:18;;;;;;;9.30;3.27;;;;;;;2.71;nan;102082.59;5009768;28;20033;-81
2023/05/03 05:26:45;;;;;;;3.60;2.90;;;;;;;3.00;nan;102082.66;5012147;28;20033;-85
2023/05/03 05:29:12;;;;;;;7.30;3.20;;;;;;;3.32;nan;102092.44;5011961;28;20036;-82
2023/05/03 05:31:39;;;;;;;5.47;2.93;;;;;;;3.46;nan;102094.59;4986710;28;20048;-86
2023/05/03 05:34:06;;;;;;;6.60;3.30;;;;;;;3.49;nan;102092.97;5023449;28;20041;-81
2023/05/03 05:36:33;;;;;;;6.47;3.50;;;;;;;3.75;nan;102096.38;5021273;28;20029;-81
2023/05/03 05:39:00;;;;;;;5.90;3.63;;;;;;;3.90;nan;102093.34;5021806;28;20048;-81
2023/05/03 05:41:27;;;;;;;7.57;3.23;;;;;;;4.16;nan;102097.59;5014781;28;20335;-82
2023/05/03 05:43:54;;;;;;;8.67;3.17;;;;;;;4.56;nan;102089.97;5026076;28;20390;-81
2023/05/03 05:46:21;;;;;;;8.57;3.80;;;;;;;4.94;nan;102086.59;5024194;28;20036;-82
2023/05/03 05:48:50;;;;;;;5.77;2.67;;;;;;;5.43;nan;102100.91;5015203;28;20067;-81
2023/05/03 05:51:17;;;;;;;8.83;2.70;;;;;;;6.37;nan;102093.34;5006589;28;20033;-81
2023/05/03 05:53:44;;;;;;;7.27;3.37;;;;;;;7.66;nan;102094.72;5020295;28;20409;-82
2023/05/03 05:56:11;;;;;;;4.27;2.30;;;;;;;8.59;nan;102089.75;4997696;28;20037;-82
2023/05/03 05:58:38;;;;;;;7.23;2.87;;;;;;;8.80;nan;102092.59;4997538;28;20052;-85
2023/05/03 06:01:05;;;;;;;4.00;2.53;;;;;;;8.79;nan;102098.72;5013372;28;20048;-82
2023/05/03 06:03:35;;;;;;;7.60;2.57;;;;;;;8.56;nan;102105.50;5013702;28;20071;-90
2023/05/03 06:06:02;;;;;;;8.67;2.57;;;;;;;8.38;nan;102106.19;5013244;28;20034;-83
2023/05/03 06:08:29;;;;;;;4.17;2.10;;;;;;;9.35;nan;102101.00;5012328;28;20041;-83
2023/05/03 06:10:55;;;;;;;3.37;2.03;;;;;;;10.10;nan;102099.69;5012886;28;20646;-88
2023/05/03 06:13:23;;;;;;;5.03;2.40;;;;;;;10.48;nan;102098.97;5013097;28;20047;-82
2023/05/03 06:15:50;;;;;;;6.40;2.20;;;;;;;11.80;nan;102100.78;5012790;28;20040;-82
2023/05/03 06:18:17;;;;;;;4.00;2.00;;;;;;;13.00;nan;102095.75;5013722;28;20060;-85
2023/05/03 06:20:48;;;;;;;3.70;2.10;;;;;;;14.27;nan;102099.81;4984812;28;20394;-82
2023/05/03 06:23:16;;;;;;;6.28;2.38;;;;;;;15.09;nan;102103.97;5008543;28;20041;-82
2023/05/03 06:25:46;;;;;;;4.35;2.67;;;;;;;15.76;nan;102100.16;5019855;28;20518;-83
2023/05/03 06:28:13;;;;;;;4.35;2.15;;;;;;;16.18;nan;102104.66;5020823;28;20083;-83
2023/05/03 06:30:40;;;;;;;2.83;1.98;;;;;;;16.32;nan;102097.28;5020081;28;20405;-86
2023/05/03 06:33:11;;;;;;;4.63;2.10;;;;;;;16.02;nan;102102.31;5034841;28;20047;-83
2023/05/03 06:35:38;;;;;;;7.40;1.95;;;;;;;16.09;nan;102102.19;5035427;28;20572;-88
2023/05/03 06:38:05;;;;;;;5.90;2.10;;;;;;;15.39;nan;102110.59;5026208;28;20092;-84
2023/05/03 06:40:32;;;;;;;5.38;2.25;;;;;;;14.75;nan;102108.94;5023212;28;20043;-86
2023/05/03 06:42:59;;;;;;;6.22;2.72;;;;;;;13.47;nan;102111.34;5028604;28;20037;-84
2023/05/03 06:45:25;;;;;;;4.82;2.17;;;;;;;13.49;nan;102106.88;5019405;28;20519;-83
2023/05/03 06:47:53;;;;;;;7.80;3.17;;;;;;;12.87;nan;102099.41;5000168;28;20033;-83
2023/05/03 06:50:21;;;;;;;3.42;2.63;;;;;;;12.95;nan;102098.47;5010744;28;20053;-85
2023/05/03 06:52:48;;;;;;;6.03;2.55;;;;;;;13.06;nan;102098.38;5019902;28;20037;-83
2023/05/03 06:55:16;;;;;;;8.10;2.40;;;;;;;13.12;nan;102093.03;5017548;28;20398;-84
2023/05/03 06:57:43;;;;;;;4.53;2.70;;;;;;;12.30;nan;102104.16;5017899;28;20025;-85
2023/05/03 07:00:10;;;;;;;5.97;2.80;;;;;;;12.75;nan;102110.09;5018222;28;20059;-82
2023/05/03 07:02:37;;;;;;;5.30;3.00;;;;;;;12.94;nan;102106.41;5025768;28;20030;-83
2023/05/03 07:05:05;;;;;;;5.80;2.63;;;;;;;12.87;nan;102100.28;5005255;28;20515;-86
2023/05/03 07:07:32;;;;;;;8.25;3.70;;;;;;;12.97;nan;102103.75;5017263;28;20074;-84
2023/05/03 07:09:59;;;;;;;7.68;2.83;;;;;;;12.52;nan;102100.50;5012096;28;20037;-88
2023/05/03 07:12:27;;;;;;;5.90;2.42;;;;;;;12.01;nan;102104.25;5014416;28;20033;-83
2023/05/03 07:14:54;;;;;;;8.07;3.25;;;;;;;12.43;nan;102107.63;5018299;28;20413;-83
2023/05/03 07:17:22;;;;;;;5.10;3.03;;;;;;;12.81;nan;102108.28;5017659;28;20033;-84
2023/05/03 07:19:49;;;;;;;7.68;2.47;;;;;;;13.10;nan;102102.75;5001523;28;20560;-83
2023/05/03 07:22:17;;;;;;;7.30;3.13;;;;;;;13.21;nan;102110.69;5028918;28;20045;-83
2023/05/03 07:24:44;;;;;;;6.82;3.08;;;;;;;13.32;nan;102106.16;5010551;28;20041;-83
2023/05/03 07:27:12;;;;;;;8.30;2.75;;;;;;;13.29;nan;102106.19;5002348;28;20038;-89
2023/05/03 07:29:39;;;;;;;4.65;2.42;;;;;;;13.62;nan;102098.78;5033696;28;20037;-87
2023/05/03 07:32:06;;;;;;;9.27;2.88;;;;;;;13.70;nan;102104.91;5032865;28;20079;-83
2023/05/03 07:34:33;;;;;;;4.93;2.53;;;;;;;13.39;nan;102112.28;5030677;28;20029;-82
2023/05/03 07:37:00;;;;;;;6.65;3.05;;;;;;;12.83;nan;102109.16;5033361;28;20049;-82
2023/05/03 07:39:26;;;;;;;5.28;2.40;;;;;;;13.48;nan;102112.22;4990054;28;20487;-82
2023/05/03 07:41:53;;;;;;;6.68;3.28;;;;;;;13.91;nan;102101.16;5027774;28;20048;-85
2023/05/03 07:44:21;;;;;;;5.53;2.58;;;;;;;13.93;nan;102109.97;5044003;28;20041;-82
2023/05/03 07:46:48;;;;;;;5.15;2.80;;;;;;;14.30;nan;102099.78;5006299;28;20109;-84
2023/05/03 07:49:15;;;;;;;4.43;2.67;;;;;;;14.61;nan;102098.47;5030512;28;20402;-81
2023/05/03 07:51:42;;;;;;;4.63;2.50;;;;;;;14.88;nan;102098.97;5010580;28;20486;-83
2023/05/03 07:54:09;;;;;;;7.95;3.10;;;;;;;14.60;nan;102090.53;5007576;28;20061;-81
2023/05/03 07:56:36;;;;;;;5.65;2.42;;;;;;;14.86;nan;102095.47;5027475;28;20043;-85
2023/05/03 07:59:03;;;;;;;4.47;2.40;;;;;;;14.48;nan;102090.72;4997599;28;20116;-82
2023/05/03 08:01:36;;;;;;;4.63;2.45;;;;;;;14.70;nan;102093.94;4994530;28;20049;-86
2023/05/03 08:04:03;;;;;;;5.97;2.83;;;;;;;14.99;nan;102094.38;5014848;28;20044;-82
2023/05/03 08:06:31;;;;;;;4.90;2.83;;;;;;;14.18;nan;102095.50;5013549;28;20041;-82
2023/05/03 08:08:59;;;;;;;5.70;2.72;;;;;;;13.98;nan;102095.75;5016920;28;20033;-82
2023/05/03 08:11:27;;;;;;;4.47;2.33;;;;;;;13.25;nan;102093.81;5034219;28;20040;-85
2023/05/03 08:13:55;;;;;;;5.15;2.47;;;;;;;12.56;nan;102102.25;5014816;28;20045;-82
2023/05/03 08:16:22;;;;;;;4.00;2.20;;;;;;;12.85;nan;102095.88;4998187;28;20052;-86
2023/05/03 08:18:50;;;;;;;5.00;2.42;;;;;;;13.35;nan;102099.94;5022419;28;20037;-81
2023/05/03 08:21:17;;;;;;;7.63;2.50;;;;;;;13.04;nan;102096.63;5025679;28;20041;-82
2023/05/03 08:23:45;;;;;;;3.70;2.25;;;;;;;13.31;nan;102090.25;5032738;28;20033;-85
2023/05/03 08:26:12;;;;;;;5.28;2.22;;;;;;;13.45;nan;102094.53;5015715;28;20079;-83
2023/05/03 08:28:40;;;;;;;6.05;2.63;;;;;;;12.88;nan;102091.44;5032865;28;20682;-82
2023/05/03 08:31:07;;;;;;;3.90;2.13;;;;;;;13.52;nan;102090.03;5016466;28;20033;-82
2023/05/03 08:33:34;;;;;;;6.50;2.28;;;;;;;13.36;nan;102093.72;5030829;28;20037;-87
2023/05/03 08:36:02;;;;;;;3.97;2.25;;;;;;;13.86;nan;102081.72;5039332;28;20044;-81
2023/05/03 08:38:28;;;;;;;6.07;2.47;;;;;;;13.76;nan;102087.13;5009315;28;20041;-84
2023/05/03 08:40:57;;;;;;;4.05;2.40;;;;;;;13.23;nan;102087.66;4996076;28;20048;-82
2023/05/03 08:43:26;;;;;;;3.22;2.20;;;;;;;13.85;nan;102080.81;5016096;28;20054;-81
2023/05/03 08:45:53;;;;;;;6.18;3.20;;;;;;;14.13;nan;102088.50;5031942;28;20421;-82
2023/05/03 08:48:21;;;;;;;4.90;2.45;;;;;;;13.27;nan;102083.19;5016200;28;20577;-82
2023/05/03 08:50:50;;;;;;;7.10;2.30;;;;;;;13.68;nan;102088.97;5017044;28;20128;-82
2023/05/03 08:53:17;;;;;;;18.33;4.05;;;;;;;14.40;nan;102088.13;5017196;28;20520;-83
2023/05/03 08:55:44;;;;;;;4.18;2.33;;;;;;;15.23;nan;102094.91;5013555;28;20034;-82
2023/05/03 08:58:11;;;;;;;4.38;2.20;;;;;;;15.56;nan;102082.78;5014452;28;20107;-85
2023/05/03 09:00:40;;;;;;;4.35;2.00;;;;;;;16.03;nan;102084.53;5014159;28;20680;-82
2023/05/03 09:03:07;;;;;;;4.65;1.90;;;;;;;15.78;nan;102092.13;5021534;28;20041;-84
2023/05/03 09:05:37;;;;;;;3.45;1.95;;;;;;;15.71;nan;102083.38;4990371;28;20049;-83
2023/05/03 09:08:10;;;;;;;6.68;2.90;;;;;;;15.67;nan;102097.66;5013496;28;20029;-81
2023/05/03 09:10:39;;;;;;;2.70;2.00;;;;;;;15.28;nan;102101.88;5034116;28;20094;-82
2023/05/03 09:13:06;;;;;;;5.53;2.15;;;;;;;14.75;nan;102102.75;5030479;28;20033;-85
2023/05/03 09:15:34;;;;;;;2.97;2.25;;;;;;;14.26;nan;102098.06;5009982;28;20401;-83
2023/05/03 09:18:16;;;;;;;3.33;1.85;;;;;;;14.13;nan;102107.97;5017787;28;20044;-82
2023/05/03 09:20:50;;;;;;;7.40;2.45;;;;;;;13.95;nan;102111.69;5014744;28;20044;-86
2023/05/03 09:23:30;;;;;;;4.68;2.00;;;;;;;13.85;nan;102109.16;5015702;28;20048;-82
2023/05/03 09:25:58;;;;;;;4.68;2.20;;;;;;;14.29;nan;102119.28;5031829;28;20044;-86
2023/05/03 09:28:25;;;;;;;4.15;2.28;;;;;;;14.81;nan;102106.19;4982067;28;20052;-82
2023/05/03 09:31:13;;;;;;;3.92;2.63;;;;;;;14.78;nan;102100.91;4997746;28;20048;-82
2023/05/03 09:33:40;;;;;;;5.13;2.50;;;;;;;15.20;nan;102093.13;5013988;28;20044;-83
2023/05/03 09:36:07;;;;;;;6.03;2.10;;;;;;;15.73;nan;102097.56;4999727;28;20039;-83
2023/05/03 09:38:37;;;;;;;5.43;2.28;;;;;;;16.08;nan;102098.66;5017699;28;20495;-86
2023/05/03 09:41:07;;;;;;;4.53;2.28;;;;;;;16.04;nan;102094.28;5016657;28;20405;-86
2023/05/03 09:43:34;;;;;;;4.25;2.00;;;;;;;15.90;nan;102102.56;5018281;28;20637;-83
2023/05/03 09:46:11;;;;;;;5.07;2.63;;;;;;;15.59;nan;102088.03;5017530;28;20033;-88
2023/05/03 09:48:39;;;;;;;5.60;2.42;;;;;;;15.67;nan;102100.34;5017072;28;20040;-84
2023/05/03 09:51:07;;;;;;;12.48;3.55;;;;;;;14.90;nan;102102.50;5032168;28;20070;-86
2023/05/03 09:53:35;;;;;;;4.32;2.33;;;;;;;14.72;nan;102111.66;5032164;28;20083;-83
2023/05/03 09:56:03;;;;;;;4.65;2.50;;;;;;;14.59;nan;102100.28;5031629;28;20052;-83
2023/05/03 09:58:33;;;;;;;4.13;2.33;;;;;;;14.42;nan;102102.28;5032004;28;20041;-86
2023/05/03 10:01:01;;;;;;;4.68;1.95;;;;;;;14.86;nan;102103.44;5015729;28;20043;-83
2023/05/03 10:03:38;;;;;;;6.47;2.20;;;;;;;15.47;nan;102102.47;5031130;28;20077;-83
2023/05/03 10:06:21;;;;;;;7.05;2.35;;;;;;;15.70;nan;102092.28;5015664;28;20040;-84
2023/05/03 10:08:53;;;;;;;5.72;2.20;;;;;;;16.12;nan;102080.78;5014812;28;20037;-83
2023/05/03 10:11:23;;;;;;;3.63;2.08;;;;;;;16.17;nan;102089.59;5032759;28;20045;-85
2023/05/03 10:13:49;;;;;;;5.90;2.75;;;;;;;16.11;nan;102092.38;5033794;28;20047;-83
2023/05/03 10:16:20;;;;;;;3.20;2.03;;;;;;;15.99;nan;102088.19;5044271;28;20656;-84
2023/05/03 10:19:15;;;;;;;12.77;2.28;;;;;;;16.57;nan;102085.16;5012279;28;20029;-86
2023/05/03 10:21:57;;;;;;;4.97;2.65;;;;;;;17.14;nan;102079.34;4996673;28;20560;-83
2023/05/03 10:24:24;;;;;;;6.22;2.42;;;;;;;17.28;nan;102080.78;5031437;28;20047;-85
2023/05/03 10:26:51;;;;;;;8.25;2.35;;;;;;;17.69;nan;102074.34;5016557;28;20045;-85
2023/05/03 10:29:34;;;;;;;4.30;1.95;;;;;;;17.89;nan;102079.16;5033549;28;20033;-86
2023/05/03 10:32:02;;;;;;;3.25;1.77;;;;;;;17.94;nan;102079.94;5033351;28;20512;-86
2023/05/03 10:34:38;;;;;;;6.90;2.78;;;;;;;17.06;nan;102086.66;5031080;28;20037;-87
2023/05/03 10:37:10;;;;;;;4.93;2.20;;;;;;;16.37;nan;102089.16;4991513;28;20045;-84
2023/05/03 10:39:43;;;;;;;8.13;3.75;;;;;;;16.10;nan;102086.16;4995325;28;20052;-83
2023/05/03 10:42:10;;;;;;;30.08;27.55;;;;;;;15.26;nan;102090.38;5028467;28;20056;-83
2023/05/03 10:44:50;;;;;;;10.32;7.45;;;;;;;15.60;nan;102087.13;5001842;28;20413;-83
2023/05/03 10:47:19;;;;;;;5.20;3.38;;;;;;;15.90;nan;102083.03;5022847;28;20043;-83
2023/05/03 10:49:46;;;;;;;4.00;2.55;;;;;;;16.01;nan;102081.91;5016196;28;20075;-85
2023/05/03 10:52:34;;;;;;;3.70;2.03;;;;;;;15.96;nan;102085.56;5024874;28;20037;-85
2023/05/03 10:55:01;;;;;;;9.27;3.22;;;;;;;16.79;nan;102077.53;5032387;28;20037;-83
2023/05/03 10:57:31;;;;;;;6.50;4.38;;;;;;;17.08;nan;102068.84;5031342;28;20037;-85
2023/05/03 11:00:01;;;;;;;12.77;11.60;;;;;;;16.88;nan;102069.31;5017844;28;20044;-86
2023/05/03 11:02:32;;;;;;;3.50;2.00;;;;;;;16.69;nan;102076.00;5034312;28;20045;-85
2023/05/03 11:05:02;;;;;;;5.28;1.80;;;;;;;16.68;nan;102071.56;5052037;28;20041;-82
2023/05/03 11:07:30;;;;;;;5.53;2.13;;;;;;;16.56;nan;102079.81;5021104;28;20443;-82
2023/05/03 11:09:57;;;;;;;9.68;2.85;;;;;;;16.12;nan;102073.66;5004369;28;20047;-85
2023/05/03 11:12:24;;;;;;;4.57;2.60;;;;;;;16.00;nan;102079.28;5020775;28;20516;-84
2023/05/03 11:14:51;;;;;;;5.43;3.00;;;;;;;15.86;nan;102071.53;5034175;28;20075;-86
2023/05/03 11:17:18;;;;;;;5.43;1.90;;;;;;;15.84;nan;102077.81;5011988;28;20041;-82
2023/05/03 11:19:45;;;;;;;4.57;1.80;;;;;;;16.23;nan;102071.69;4999637;28;20045;-82
2023/05/03 11:22:12;;;;;;;4.60;2.60;;;;;;;16.27;nan;102064.47;4991396;28;20054;-82
2023/05/03 11:24:39;;;;;;;2.47;1.60;;;;;;;16.16;nan;102064.72;5035181;28;20043;-83
2023/05/03 11:27:06;;;;;;;4.18;2.08;;;;;;;15.61;nan;102068.47;5008023;28;20056;-83
2023/05/03 11:29:34;;;;;;;4.50;2.17;;;;;;;16.14;nan;102061.19;4999727;28;20041;-84
2023/05/03 11:32:01;;;;;;;5.07;2.05;;;;;;;15.96;nan;102058.91;5000857;28;20041;-85
2023/05/03 11:34:28;;;;;;;5.78;2.67;;;;;;;15.38;nan;102070.63;5015817;28;20048;-82
2023/05/03 11:36:56;;;;;;;4.80;1.95;;;;;;;15.23;nan;102063.81;5016146;28;20048;-86
2023/05/03 11:39:23;;;;;;;5.35;1.80;;;;;;;14.92;nan;102064.31;5032288;28;20037;-84
2023/05/03 11:42:10;;;;;;;3.50;2.20;;;;;;;14.92;nan;102066.09;5035341;28;20045;-83
2023/05/03 11:44:37;;;;;;;4.03;1.70;;;;;;;15.16;nan;102055.06;5031490;28;20034;-84
2023/05/03 11:47:04;;;;;;;5.22;2.80;;;;;;;15.59;nan;102040.09;5015977;28;20418;-84
2023/05/03 11:49:31;;;;;;;6.97;2.28;;;;;;;15.03;nan;102058.81;4992005;28;20041;-85
2023/05/03 11:51:58;;;;;;;5.40;2.10;;;;;;;14.93;nan;102050.13;5040353;28;20044;-83